GLRB

Roberts International Airport

Monrovia, Liberia
METAR GLRB 161800Z 21007KT 9999 FEW020 31/24 Q1010 NOSIG
Observed Flight Rules
Jan-16 @ 18:00 UTC (27 minutes ago) Visual Flight Rules
Wind Visibility Clouds
210° at 7 knots 10,000+ meters
  • Few at 2,000' AGL
Temperatures Readings
Current 31°C / 88°F
Dewpoint 24°C / 75°F
Humidity 66%
Altimeter 29.82" Hg
Pressure 1009.92 hPa
Elevation 18
METAR GLRB 161800Z 21007KT 9999 FEW020 31/24 Q1010 NOSIG
Observed Flight Rules
Jan-16 @ 18:00 UTC
(27 minutes ago)
VFR
Wind Visibility
210° at 7 knots 10,000+ meters
Clouds
  • Few at 2,000' AGL
Temperature Dewpoint
31°C / 88°F 24°C / 75°F
Humidity Altimeter Pressure
66% 29.82" Hg 1009.92 hPa